createdAt,value
2018-05-15T00:00:34.186Z,16.82
2018-05-15T00:03:02.450Z,16.77
2018-05-15T00:05:30.754Z,16.76
2018-05-15T00:07:58.994Z,16.72
2018-05-15T00:10:28.011Z,16.71
2018-05-15T00:12:56.254Z,16.69
2018-05-15T00:15:24.495Z,16.66
2018-05-15T00:17:52.729Z,16.68
2018-05-15T00:20:21.725Z,16.72
2018-05-15T00:22:49.979Z,16.75
2018-05-15T00:25:18.981Z,16.79
2018-05-15T00:27:48.394Z,16.77
2018-05-15T00:30:16.651Z,16.85
2018-05-15T00:32:44.894Z,16.78
2018-05-15T00:35:13.143Z,16.86
2018-05-15T00:37:41.374Z,16.87
2018-05-15T00:40:09.622Z,16.94
2018-05-15T00:42:37.857Z,16.95
2018-05-15T00:45:06.105Z,16.73
2018-05-15T00:47:34.351Z,16.80
2018-05-15T00:50:02.631Z,16.80
2018-05-15T00:52:31.158Z,16.72
2018-05-15T00:55:18.045Z,16.78
2018-05-15T00:57:46.338Z,16.87
2018-05-15T01:00:15.333Z,16.74
2018-05-15T01:02:44.341Z,16.66
2018-05-15T01:05:12.594Z,16.76
2018-05-15T01:07:41.591Z,16.75
2018-05-15T01:10:10.604Z,16.73
2018-05-15T01:12:38.846Z,16.66
2018-05-15T01:15:07.851Z,16.48
2018-05-15T01:17:37.168Z,16.55
2018-05-15T01:20:05.393Z,16.63
2018-05-15T01:22:33.646Z,16.60
2018-05-15T01:25:01.887Z,16.48
2018-05-15T01:27:30.919Z,16.43
2018-05-15T01:29:59.261Z,16.38
2018-05-15T01:32:27.503Z,16.31
2018-05-15T01:34:55.743Z,16.33
2018-05-15T01:37:23.989Z,16.26
2018-05-15T01:39:52.235Z,16.40
2018-05-15T01:42:20.477Z,16.34
2018-05-15T01:44:48.713Z,16.37
2018-05-15T01:47:16.951Z,16.39
2018-05-15T01:49:45.219Z,16.45
2018-05-15T01:52:13.426Z,16.39
2018-05-15T01:54:42.661Z,16.30
2018-05-15T01:57:10.890Z,16.21
2018-05-15T01:59:39.898Z,16.23
2018-05-15T02:02:08.906Z,16.39
2018-05-15T02:04:37.149Z,16.26
2018-05-15T02:07:05.391Z,16.36
2018-05-15T02:09:33.626Z,16.25
2018-05-15T02:12:01.878Z,16.17
2018-05-15T02:14:30.486Z,16.12
2018-05-15T02:16:58.717Z,16.07
2018-05-15T02:19:26.956Z,16.01
2018-05-15T02:21:55.210Z,15.97
2018-05-15T02:24:23.511Z,15.89
2018-05-15T02:26:51.758Z,16.11
2018-05-15T02:29:20.766Z,15.98
2018-05-15T02:31:49.030Z,15.76
2018-05-15T02:34:18.027Z,15.67
2018-05-15T02:36:46.271Z,15.75
2018-05-15T02:39:14.506Z,15.71
2018-05-15T02:41:42.761Z,15.57
2018-05-15T02:44:10.990Z,15.63
2018-05-15T02:46:39.222Z,15.72
2018-05-15T02:49:07.486Z,15.59
2018-05-15T02:51:35.731Z,15.50
2018-05-15T02:54:04.754Z,15.55
2018-05-15T02:56:32.993Z,15.49
2018-05-15T02:59:01.218Z,15.46
2018-05-15T03:01:29.891Z,15.44
2018-05-15T03:03:58.130Z,15.41
2018-05-15T03:06:26.403Z,15.41
2018-05-15T03:08:54.653Z,15.54
2018-05-15T03:11:22.890Z,15.49
2018-05-15T03:13:51.151Z,15.25
2018-05-15T03:16:20.179Z,15.28
2018-05-15T03:18:48.405Z,15.28
2018-05-15T03:21:17.417Z,15.21
2018-05-15T03:23:45.659Z,15.45
2018-05-15T03:26:13.899Z,15.43
2018-05-15T03:28:42.150Z,15.41
2018-05-15T03:31:10.387Z,15.28
2018-05-15T03:33:38.964Z,15.32
2018-05-15T03:36:07.197Z,15.39
2018-05-15T03:38:35.431Z,15.20
2018-05-15T03:41:03.727Z,15.10
2018-05-15T03:43:32.735Z,15.12
2018-05-15T03:46:00.981Z,15.04
2018-05-15T03:48:29.985Z,15.01
2018-05-15T03:50:58.993Z,15.15
2018-05-15T03:53:27.457Z,15.14
2018-05-15T03:55:56.461Z,15.26
2018-05-15T03:58:25.458Z,15.14
2018-05-15T04:01:11.496Z,15.11
2018-05-15T04:03:57.486Z,15.14
2018-05-15T04:06:43.642Z,15.18
2018-05-15T04:09:11.899Z,15.22
2018-05-15T04:11:40.902Z,15.17
2018-05-15T04:14:09.138Z,15.15
2018-05-15T04:16:37.554Z,15.11
2018-05-15T04:19:06.550Z,15.24
2018-05-15T04:21:34.792Z,15.25
2018-05-15T04:24:03.049Z,15.26
2018-05-15T04:26:31.378Z,15.23
2018-05-15T04:28:59.629Z,15.24
2018-05-15T04:31:27.854Z,15.52
2018-05-15T04:33:56.087Z,15.43
2018-05-15T04:36:25.102Z,15.20
2018-05-15T04:38:53.338Z,15.19
2018-05-15T04:41:21.572Z,15.27
2018-05-15T04:43:50.071Z,15.34
2018-05-15T04:46:18.815Z,15.26
2018-05-15T04:48:47.051Z,15.26
2018-05-15T04:51:15.297Z,15.30
2018-05-15T04:53:43.526Z,15.46
2018-05-15T04:56:12.739Z,15.48
2018-05-15T04:58:41.737Z,15.65
2018-05-15T05:01:09.982Z,15.78
2018-05-15T05:03:38.999Z,15.58
2018-05-15T05:06:07.233Z,15.63
2018-05-15T05:08:35.467Z,15.69
2018-05-15T05:11:03.714Z,15.68
2018-05-15T05:13:32.727Z,15.73
2018-05-15T05:16:00.974Z,15.86
2018-05-15T05:18:30.012Z,15.76
2018-05-15T05:20:58.332Z,15.70
2018-05-15T05:23:27.253Z,15.86
2018-05-15T05:25:56.262Z,15.84
2018-05-15T05:28:24.510Z,15.75
2018-05-15T05:30:53.576Z,15.76
2018-05-15T05:33:21.952Z,15.82
2018-05-15T05:35:50.134Z,15.69
2018-05-15T05:38:18.390Z,15.86
2018-05-15T05:40:46.631Z,15.85
2018-05-15T05:43:14.871Z,15.80
2018-05-15T05:45:43.114Z,15.76
2018-05-15T05:48:11.355Z,15.98
2018-05-15T05:50:39.586Z,15.98
2018-05-15T05:53:08.718Z,15.91
2018-05-15T05:55:37.714Z,15.87
2018-05-15T05:58:05.950Z,15.83
2018-05-15T06:00:34.194Z,15.86
2018-05-15T06:03:02.696Z,15.99
2018-05-15T06:05:30.893Z,16.26
2018-05-15T06:07:59.129Z,16.10
2018-05-15T06:10:27.374Z,16.18
2018-05-15T06:12:55.755Z,16.02
2018-05-15T06:15:24.755Z,16.05
2018-05-15T06:17:52.990Z,16.18
2018-05-15T06:20:21.240Z,16.31
2018-05-15T06:22:49.774Z,16.28
2018-05-15T06:25:18.079Z,16.21
2018-05-15T06:27:46.355Z,16.45
2018-05-15T06:30:14.590Z,16.68
2018-05-15T06:32:43.619Z,16.78
2018-05-15T06:35:11.854Z,16.77
2018-05-15T06:37:40.861Z,16.80
2018-05-15T06:40:09.876Z,16.75
2018-05-15T06:42:38.109Z,16.56
2018-05-15T06:45:06.354Z,16.60
2018-05-15T06:47:34.594Z,16.56
2018-05-15T06:50:02.839Z,16.64
2018-05-15T06:52:31.467Z,16.60
2018-05-15T06:54:59.697Z,16.85
2018-05-15T06:57:28.713Z,16.71
2018-05-15T06:59:57.743Z,16.56
2018-05-15T07:02:25.983Z,16.65
2018-05-15T07:04:54.237Z,16.74
2018-05-15T07:07:23.249Z,16.64
2018-05-15T07:09:52.454Z,16.67
2018-05-15T07:12:20.695Z,16.97
2018-05-15T07:14:48.928Z,16.86
2018-05-15T07:17:17.495Z,16.88
2018-05-15T07:19:45.738Z,16.99
2018-05-15T07:22:14.742Z,17.05
2018-05-15T07:24:43.763Z,16.98
2018-05-15T07:27:12.006Z,17.06
2018-05-15T07:29:40.997Z,17.30
2018-05-15T07:32:10.041Z,17.24
2018-05-15T07:34:38.282Z,17.14
2018-05-15T07:37:07.295Z,17.22
2018-05-15T07:39:35.529Z,17.42
2018-05-15T07:42:03.773Z,17.48
2018-05-15T07:44:32.012Z,17.43
2018-05-15T07:47:00.582Z,17.31
2018-05-15T07:49:28.822Z,17.47
2018-05-15T07:51:57.098Z,17.28
2018-05-15T07:54:25.350Z,17.04
2018-05-15T07:56:53.591Z,17.04
2018-05-15T07:59:21.888Z,17.36
2018-05-15T08:01:50.126Z,17.22
2018-05-15T08:04:19.237Z,17.29
2018-05-15T08:06:48.228Z,17.24
2018-05-15T08:09:16.471Z,17.23
2018-05-15T08:11:44.709Z,17.04
2018-05-15T08:14:12.954Z,17.12
2018-05-15T08:16:41.223Z,17.30
2018-05-15T08:19:10.223Z,17.45
2018-05-15T08:21:38.455Z,17.69
2018-05-15T08:24:06.715Z,17.69
2018-05-15T08:26:34.958Z,17.83
2018-05-15T08:29:03.193Z,18.09
2018-05-15T08:31:31.446Z,18.12
2018-05-15T08:33:59.685Z,17.87
2018-05-15T08:36:27.919Z,18.03
2018-05-15T08:38:56.171Z,17.95
2018-05-15T08:41:24.410Z,18.24
2018-05-15T08:43:52.642Z,17.91
2018-05-15T08:46:20.891Z,17.84
2018-05-15T08:48:49.127Z,17.97
2018-05-15T08:51:17.377Z,17.94
2018-05-15T08:53:45.615Z,18.09
2018-05-15T08:56:13.845Z,18.10
2018-05-15T08:58:42.099Z,18.25
2018-05-15T09:01:10.343Z,18.48
2018-05-15T09:03:38.574Z,18.54
2018-05-15T09:06:06.837Z,18.77
2018-05-15T09:08:35.833Z,18.73
2018-05-15T09:11:04.838Z,18.72
2018-05-15T09:13:33.851Z,18.58
2018-05-15T09:16:02.096Z,18.46
2018-05-15T09:18:31.102Z,18.45
2018-05-15T09:20:59.359Z,18.34
2018-05-15T09:23:27.595Z,18.23
2018-05-15T09:25:55.830Z,18.23
2018-05-15T09:28:24.091Z,18.20
2018-05-15T09:30:53.098Z,18.07
2018-05-15T09:33:21.334Z,18.16
2018-05-15T09:35:49.587Z,18.14
2018-05-15T09:38:17.825Z,18.13
2018-05-15T09:40:46.054Z,18.06
2018-05-15T09:43:34.014Z,18.58
2018-05-15T09:46:02.251Z,18.84
2018-05-15T09:48:30.514Z,18.87
2018-05-15T09:50:58.759Z,18.84
2018-05-15T09:53:27.753Z,18.71
2018-05-15T09:55:55.984Z,18.57
2018-05-15T09:58:24.231Z,18.55
2018-05-15T10:00:52.466Z,18.35
2018-05-15T10:03:21.487Z,18.27
2018-05-15T10:05:49.739Z,18.17
2018-05-15T10:08:18.746Z,18.05
2018-05-15T10:10:46.977Z,18.09
2018-05-15T10:13:15.234Z,17.98
2018-05-15T10:15:43.486Z,17.47
2018-05-15T10:18:11.725Z,17.06
2018-05-15T10:20:39.975Z,16.78
2018-05-15T10:23:08.234Z,16.33
2018-05-15T10:25:36.477Z,16.13
2018-05-15T10:28:05.487Z,15.97
2018-05-15T10:30:33.717Z,15.47
2018-05-15T10:33:02.734Z,15.23
2018-05-15T10:35:31.310Z,14.96
2018-05-15T10:38:00.322Z,14.83
2018-05-15T10:40:28.556Z,14.70
2018-05-15T10:42:56.969Z,14.63
2018-05-15T10:45:25.210Z,14.53
2018-05-15T10:47:53.448Z,14.53
2018-05-15T10:50:21.690Z,14.57
2018-05-15T10:52:49.933Z,14.62
2018-05-15T10:55:18.189Z,14.69
2018-05-15T10:57:46.427Z,14.81
2018-05-15T11:00:14.690Z,14.90
2018-05-15T11:02:43.693Z,15.02
2018-05-15T11:05:11.929Z,15.15
2018-05-15T11:07:40.179Z,15.23
2018-05-15T11:10:08.422Z,15.26
2018-05-15T11:12:36.771Z,15.44
2018-05-15T11:15:04.931Z,15.56
2018-05-15T11:17:33.182Z,15.67
2018-05-15T11:20:19.008Z,15.82
2018-05-15T11:23:06.242Z,16.44
2018-05-15T11:25:35.246Z,16.47
2018-05-15T11:28:03.495Z,16.55
2018-05-15T11:30:32.614Z,16.82
2018-05-15T11:33:00.752Z,16.90
2018-05-15T11:35:28.996Z,17.05
2018-05-15T11:37:57.251Z,17.27
2018-05-15T11:40:25.489Z,17.51
2018-05-15T11:42:54.502Z,17.79
2018-05-15T11:45:22.894Z,17.71
2018-05-15T11:47:51.465Z,17.60
2018-05-15T11:50:20.928Z,17.71
2018-05-15T11:52:48.894Z,17.57
2018-05-15T11:55:17.418Z,17.78
2018-05-15T11:57:45.675Z,17.91
2018-05-15T12:00:14.759Z,17.63
2018-05-15T12:02:42.979Z,17.63
2018-05-15T12:05:11.199Z,17.88
2018-05-15T12:07:39.443Z,18.00
2018-05-15T12:10:07.706Z,17.88
2018-05-15T12:12:35.954Z,18.08
2018-05-15T12:15:05.009Z,18.11
2018-05-15T12:17:33.215Z,18.12
2018-05-15T12:20:02.237Z,18.05
2018-05-15T12:22:30.706Z,17.68
2018-05-15T12:24:59.709Z,17.51
2018-05-15T12:27:27.953Z,17.33
2018-05-15T12:29:56.552Z,17.29
2018-05-15T12:32:24.706Z,16.93
2018-05-15T12:34:52.946Z,16.77
2018-05-15T12:37:21.203Z,16.35
2018-05-15T12:39:49.445Z,15.95
2018-05-15T12:42:19.968Z,15.49
2018-05-15T12:44:48.207Z,15.41
2018-05-15T12:47:16.467Z,15.38
2018-05-15T12:49:44.706Z,15.17
2018-05-15T12:52:13.758Z,15.09
2018-05-15T12:54:41.997Z,15.05
2018-05-15T12:57:10.234Z,15.13
2018-05-15T12:59:38.490Z,15.15
2018-05-15T13:02:06.742Z,15.20
2018-05-15T13:04:34.979Z,15.13
2018-05-15T13:07:03.997Z,15.25
2018-05-15T13:09:32.247Z,15.26
2018-05-15T13:12:01.273Z,15.32
2018-05-15T13:14:29.521Z,15.24
2018-05-15T13:16:57.774Z,15.42
2018-05-15T13:19:26.010Z,15.42
2018-05-15T13:21:54.272Z,15.37
2018-05-15T13:24:22.599Z,15.34
2018-05-15T13:26:51.522Z,15.46
2018-05-15T13:29:19.786Z,15.49
2018-05-15T13:31:48.787Z,15.43
2018-05-15T13:34:17.797Z,15.60
2018-05-15T13:36:46.388Z,15.72
2018-05-15T13:39:14.618Z,15.84
2018-05-15T13:41:42.859Z,15.88
2018-05-15T13:44:11.142Z,16.00
2018-05-15T13:46:39.378Z,16.07
2018-05-15T13:49:07.622Z,16.23
2018-05-15T13:51:35.868Z,16.31
2018-05-15T13:54:04.101Z,16.32
2018-05-15T13:56:32.575Z,16.44
2018-05-15T13:59:00.809Z,16.47
2018-05-15T14:01:29.042Z,16.67
2018-05-15T14:03:57.289Z,16.77
2018-05-15T14:06:26.303Z,16.83
2018-05-15T14:08:54.670Z,16.90
2018-05-15T14:11:22.919Z,17.03
2018-05-15T14:13:51.145Z,17.10
2018-05-15T14:16:19.401Z,17.29
2018-05-15T14:18:47.657Z,17.33
2018-05-15T14:21:16.691Z,17.37
2018-05-15T14:23:44.933Z,17.42
2018-05-15T14:26:13.951Z,17.35
2018-05-15T14:28:42.187Z,17.45
2018-05-15T14:31:10.442Z,17.44
2018-05-15T14:33:38.686Z,17.26
2018-05-15T14:36:06.931Z,17.33
2018-05-15T14:38:35.942Z,17.37
2018-05-15T14:41:04.169Z,17.38
2018-05-15T14:43:33.422Z,17.42
2018-05-15T14:46:01.686Z,17.42
2018-05-15T14:48:30.682Z,17.41
2018-05-15T14:51:28.702Z,17.48
2018-05-15T14:53:56.943Z,17.50
2018-05-15T14:56:25.187Z,17.43
2018-05-15T14:58:54.290Z,17.55
2018-05-15T15:01:23.295Z,17.61
2018-05-15T15:03:51.530Z,17.64
2018-05-15T15:06:19.782Z,17.47
2018-05-15T15:08:48.042Z,17.50
2018-05-15T15:11:16.275Z,17.45
2018-05-15T15:13:45.282Z,17.35
2018-05-15T15:16:13.529Z,17.06
2018-05-15T15:18:41.829Z,17.11
2018-05-15T15:21:10.848Z,17.16
2018-05-15T15:23:39.171Z,17.05
2018-05-15T15:26:08.098Z,17.02
2018-05-15T15:28:37.112Z,16.98
2018-05-15T15:31:05.352Z,17.00
2018-05-15T15:33:34.354Z,16.91
2018-05-15T15:36:03.359Z,16.84
2018-05-15T15:38:31.628Z,16.85
2018-05-15T15:40:59.870Z,16.95
2018-05-15T15:43:28.114Z,16.86
2018-05-15T15:45:56.480Z,16.86
2018-05-15T15:48:24.725Z,16.89
2018-05-15T15:50:53.750Z,16.80
2018-05-15T15:53:21.978Z,16.72
2018-05-15T15:55:50.222Z,16.70
2018-05-15T15:58:18.477Z,16.76
2018-05-15T16:00:46.717Z,16.85
2018-05-15T16:03:15.717Z,16.82
2018-05-15T16:05:44.259Z,16.85
2018-05-15T16:08:12.489Z,16.75
2018-05-15T16:10:40.750Z,16.81
2018-05-15T16:13:09.006Z,16.86
2018-05-15T16:15:38.076Z,16.89
2018-05-15T16:18:07.019Z,16.88
2018-05-15T16:20:35.274Z,16.87
2018-05-15T16:23:04.278Z,16.88
2018-05-15T16:25:33.282Z,16.83
2018-05-15T16:28:01.575Z,16.77
2018-05-15T16:30:29.818Z,16.81
2018-05-15T16:32:58.821Z,16.88
2018-05-15T16:35:27.834Z,17.01
2018-05-15T16:37:56.079Z,17.09
2018-05-15T16:40:25.090Z,17.13
2018-05-15T16:42:53.337Z,17.21
2018-05-15T16:45:22.338Z,17.18
2018-05-15T16:47:51.353Z,17.27
2018-05-15T16:50:19.589Z,17.31
2018-05-15T16:52:49.336Z,17.29
2018-05-15T16:55:17.594Z,17.31
2018-05-15T16:57:46.599Z,17.17
2018-05-15T17:00:14.837Z,17.18
2018-05-15T17:02:43.078Z,17.20
2018-05-15T17:05:11.331Z,17.07
2018-05-15T17:07:39.578Z,17.06
2018-05-15T17:10:08.077Z,17.03
2018-05-15T17:12:37.074Z,17.18
2018-05-15T17:15:05.325Z,17.11
2018-05-15T17:17:33.566Z,17.11
2018-05-15T17:20:01.797Z,17.12
2018-05-15T17:22:30.387Z,17.24
2018-05-15T17:24:58.622Z,17.20
2018-05-15T17:27:26.861Z,17.32
2018-05-15T17:29:55.205Z,17.21
2018-05-15T17:32:24.302Z,17.31
2018-05-15T17:34:53.317Z,16.71
2018-05-15T17:37:21.567Z,16.41
2018-05-15T17:39:50.569Z,16.11
2018-05-15T17:42:18.819Z,15.93
2018-05-15T17:44:47.058Z,15.83
2018-05-15T17:47:15.709Z,15.57
2018-05-15T17:49:43.957Z,15.34
2018-05-15T17:52:13.055Z,15.10
2018-05-15T17:54:42.114Z,15.10
2018-05-15T17:57:10.349Z,14.84
2018-05-15T17:59:38.587Z,14.74
2018-05-15T18:02:06.839Z,14.55
2018-05-15T18:04:35.082Z,14.22
2018-05-15T18:07:03.654Z,14.09
2018-05-15T18:09:31.897Z,14.00
2018-05-15T18:12:00.138Z,13.89
2018-05-15T18:14:28.405Z,13.86
2018-05-15T18:16:56.635Z,13.85
2018-05-15T18:19:24.867Z,13.95
2018-05-15T18:21:54.077Z,13.93
2018-05-15T18:24:23.319Z,14.04
2018-05-15T18:26:52.334Z,13.96
2018-05-15T18:29:21.414Z,13.95
2018-05-15T18:31:50.432Z,13.94
2018-05-15T18:34:18.674Z,13.88
2018-05-15T18:36:46.957Z,13.88
2018-05-15T18:39:15.954Z,13.50
2018-05-15T18:41:44.202Z,13.33
2018-05-15T18:44:12.450Z,13.15
2018-05-15T18:46:40.698Z,13.02
2018-05-15T18:49:08.943Z,13.08
2018-05-15T18:51:37.958Z,13.09
2018-05-15T18:54:06.191Z,13.13
2018-05-15T18:56:34.434Z,13.01
2018-05-15T18:59:02.678Z,13.01
2018-05-15T19:01:30.924Z,13.05
2018-05-15T19:03:59.172Z,13.19
2018-05-15T19:06:27.402Z,13.07
2018-05-15T19:08:55.637Z,13.14
2018-05-15T19:11:23.895Z,13.28
2018-05-15T19:13:52.154Z,13.34
2018-05-15T19:16:20.374Z,13.32
2018-05-15T19:18:48.619Z,13.39
2018-05-15T19:21:16.858Z,13.47
2018-05-15T19:23:45.102Z,13.33
2018-05-15T19:26:13.362Z,13.45
2018-05-15T19:28:41.682Z,13.51
2018-05-15T19:31:16.732Z,13.47
2018-05-15T19:33:50.471Z,13.43
2018-05-15T19:36:18.715Z,13.42
2018-05-15T19:38:46.959Z,13.32
2018-05-15T19:41:19.655Z,13.21
2018-05-15T19:43:49.050Z,13.13
2018-05-15T19:46:18.059Z,13.12
2018-05-15T19:48:46.290Z,13.17
2018-05-15T19:51:14.550Z,13.07
2018-05-15T19:53:42.798Z,13.02
2018-05-15T19:56:11.051Z,12.97
2018-05-15T19:58:39.293Z,12.92
2018-05-15T20:01:09.259Z,13.03
2018-05-15T20:03:37.498Z,13.06
2018-05-15T20:06:06.621Z,12.92
2018-05-15T20:08:34.887Z,12.98
2018-05-15T20:11:03.891Z,12.95
2018-05-15T20:13:32.134Z,12.86
2018-05-15T20:16:00.382Z,12.87
2018-05-15T20:18:28.687Z,12.81
2018-05-15T20:20:56.928Z,12.81
2018-05-15T20:23:25.335Z,12.81
2018-05-15T20:25:53.562Z,12.79
2018-05-15T20:28:21.992Z,12.80
2018-05-15T20:30:51.030Z,12.79
2018-05-15T20:33:19.272Z,12.86
2018-05-15T20:35:47.499Z,12.78
2018-05-15T20:38:15.842Z,12.70
2018-05-15T20:40:44.090Z,12.71
2018-05-15T20:43:12.337Z,12.72
2018-05-15T20:45:40.610Z,12.70
2018-05-15T20:48:08.842Z,12.69
2018-05-15T20:50:37.083Z,12.68
2018-05-15T20:53:05.326Z,12.68
2018-05-15T20:55:33.558Z,12.51
2018-05-15T20:58:02.587Z,12.51
2018-05-15T21:00:30.949Z,12.56
2018-05-15T21:02:59.154Z,12.53
2018-05-15T21:05:27.397Z,12.57
2018-05-15T21:07:55.626Z,12.60
2018-05-15T21:10:23.870Z,12.63
2018-05-15T21:12:52.105Z,12.56
2018-05-15T21:15:21.110Z,12.54
2018-05-15T21:17:50.118Z,12.55
2018-05-15T21:20:18.367Z,12.53
2018-05-15T21:22:47.387Z,12.53
2018-05-15T21:25:15.622Z,12.58
2018-05-15T21:27:43.945Z,12.55
2018-05-15T21:30:12.175Z,12.58
2018-05-15T21:32:40.677Z,12.55
2018-05-15T21:35:09.677Z,12.61
2018-05-15T21:37:37.918Z,12.54
2018-05-15T21:40:06.226Z,12.54
2018-05-15T21:42:35.236Z,12.54
2018-05-15T21:45:03.479Z,12.50
2018-05-15T21:47:32.794Z,12.48
2018-05-15T21:50:01.039Z,12.59
2018-05-15T21:52:29.370Z,12.55
2018-05-15T21:54:57.928Z,12.55
2018-05-15T21:57:26.940Z,12.46
2018-05-15T21:59:55.182Z,12.51
2018-05-15T22:02:24.500Z,12.45
2018-05-15T22:04:52.744Z,12.49
2018-05-15T22:07:20.988Z,12.53
2018-05-15T22:09:49.242Z,12.57
2018-05-15T22:12:35.207Z,12.57
2018-05-15T22:15:22.129Z,12.42
2018-05-15T22:18:08.249Z,12.51
2018-05-15T22:20:54.481Z,12.45
2018-05-15T22:23:21.933Z,12.45
2018-05-15T22:25:50.666Z,12.39
2018-05-15T22:28:18.911Z,12.48
2018-05-15T22:30:47.161Z,12.51
2018-05-15T22:33:15.598Z,12.39
2018-05-15T22:35:43.870Z,12.40
2018-05-15T22:38:12.118Z,12.25
2018-05-15T22:40:41.133Z,12.32
2018-05-15T22:43:10.145Z,12.43
2018-05-15T22:45:38.384Z,12.33
2018-05-15T22:48:07.393Z,12.30
2018-05-15T22:50:36.419Z,12.38
2018-05-15T22:53:04.663Z,12.34
2018-05-15T22:55:33.687Z,12.36
2018-05-15T22:58:01.946Z,12.35
2018-05-15T23:00:30.187Z,12.30
2018-05-15T23:02:58.446Z,12.42
2018-05-15T23:05:26.698Z,12.41
2018-05-15T23:07:54.955Z,12.31
2018-05-15T23:10:23.242Z,12.40
2018-05-15T23:12:51.506Z,12.36
2018-05-15T23:15:20.518Z,12.45
2018-05-15T23:17:48.759Z,12.42
2018-05-15T23:20:17.886Z,12.46
2018-05-15T23:22:46.125Z,12.32
2018-05-15T23:25:15.130Z,12.33
2018-05-15T23:27:43.375Z,12.36
2018-05-15T23:30:11.621Z,12.30
2018-05-15T23:32:39.954Z,12.26
2018-05-15T23:35:08.272Z,12.09
2018-05-15T23:37:36.517Z,12.08
2018-05-15T23:40:04.762Z,12.14
2018-05-15T23:42:33.134Z,12.07
2018-05-15T23:45:02.148Z,12.15
2018-05-15T23:47:31.156Z,12.11
2018-05-15T23:49:59.409Z,12.11
2018-05-15T23:52:28.409Z,12.12
2018-05-15T23:54:57.433Z,12.12
2018-05-15T23:57:25.674Z,12.08
2018-05-15T23:59:54.691Z,12.12
